createdAt,value
2023-04-12T00:02:03.113Z,5.57
2023-04-12T00:07:10.167Z,5.35
2023-04-12T00:12:13.015Z,6.03
2023-04-12T00:17:18.981Z,6.38
2023-04-12T00:22:21.803Z,5.50
2023-04-12T00:27:25.776Z,5.80
2023-04-12T00:32:29.995Z,5.55
2023-04-12T00:37:33.441Z,5.72
2023-04-12T00:42:37.987Z,5.70
2023-04-12T00:47:43.361Z,5.90
2023-04-12T00:52:46.519Z,5.25
2023-04-12T00:57:49.404Z,5.15
2023-04-12T01:02:54.293Z,5.22
2023-04-12T01:08:13.319Z,4.70
2023-04-12T01:13:27.679Z,4.45
2023-04-12T01:18:40.815Z,3.72
2023-04-12T01:24:03.616Z,3.63
2023-04-12T01:29:12.205Z,3.55
2023-04-12T01:34:15.987Z,3.28
2023-04-12T01:39:18.847Z,3.22
2023-04-12T01:44:22.958Z,3.67
2023-04-12T01:49:30.333Z,2.78
2023-04-12T01:54:38.858Z,2.93
2023-04-12T01:59:44.697Z,2.67
2023-04-12T02:04:49.198Z,3.10
2023-04-12T02:09:51.969Z,3.55
2023-04-12T02:14:58.192Z,3.78
2023-04-12T02:20:01.163Z,3.28
2023-04-12T02:25:06.405Z,3.40
2023-04-12T02:30:12.380Z,3.58
2023-04-12T02:35:17.915Z,3.75
2023-04-12T02:40:23.217Z,3.15
2023-04-12T02:45:27.948Z,3.00
2023-04-12T02:50:32.630Z,3.20
2023-04-12T02:55:44.971Z,3.05
2023-04-12T03:00:50.958Z,2.65
2023-04-12T03:06:00.782Z,3.22
2023-04-12T03:11:03.780Z,3.10
2023-04-12T03:16:23.922Z,3.05
2023-04-12T03:21:33.185Z,3.38
2023-04-12T03:26:39.049Z,4.10
2023-04-12T03:31:51.108Z,3.75
2023-04-12T03:36:55.486Z,4.57
2023-04-12T03:42:32.313Z,3.40
2023-04-12T03:47:55.800Z,3.53
2023-04-12T04:05:47.254Z,3.42
2023-04-12T04:11:38.555Z,3.25
2023-04-12T04:16:58.936Z,2.88
2023-04-12T04:22:19.855Z,3.10
2023-04-12T04:27:38.283Z,3.60
2023-04-12T04:32:43.208Z,3.00
2023-04-12T04:37:46.815Z,2.50
2023-04-12T04:42:55.321Z,2.47
2023-04-12T04:48:01.389Z,2.40
2023-04-12T04:53:04.256Z,2.60
2023-04-12T04:58:10.325Z,2.78
2023-04-12T05:03:16.637Z,2.72
2023-04-12T05:08:19.527Z,2.30
2023-04-12T05:13:25.878Z,2.40
2023-04-12T05:18:29.319Z,2.47
2023-04-12T05:23:36.060Z,2.67
2023-04-12T05:28:41.203Z,3.28
2023-04-12T05:33:46.466Z,2.50
2023-04-12T05:38:49.331Z,2.95
2023-04-12T05:43:53.676Z,2.38
2023-04-12T05:48:57.319Z,2.30
2023-04-12T05:54:01.261Z,2.40
2023-04-12T05:59:11.491Z,2.65
2023-04-12T06:04:15.977Z,2.33
2023-04-12T06:09:19.812Z,2.20
2023-04-12T06:14:27.116Z,2.38
2023-04-12T06:19:29.880Z,2.30
2023-04-12T06:24:35.880Z,2.13
2023-04-12T06:29:40.074Z,2.10
2023-04-12T06:34:43.567Z,2.00
2023-04-12T06:39:49.735Z,1.90
2023-04-12T06:44:53.987Z,2.00
2023-04-12T06:49:58.141Z,1.88
2023-04-12T06:55:00.948Z,1.50
2023-04-12T07:00:06.153Z,2.47
2023-04-12T07:05:09.547Z,2.28
2023-04-12T07:10:12.631Z,2.60
2023-04-12T07:15:16.875Z,2.30
2023-04-12T07:20:19.613Z,2.50
2023-04-12T07:25:22.382Z,2.75
2023-04-12T07:30:26.524Z,2.58
2023-04-12T07:35:29.273Z,2.53
2023-04-12T07:40:32.032Z,3.25
2023-04-12T07:45:37.922Z,2.97
2023-04-12T07:50:41.160Z,2.92
2023-04-12T07:55:43.920Z,3.38
2023-04-12T08:00:48.631Z,2.55
2023-04-12T08:05:54.164Z,2.83
2023-04-12T08:10:57.017Z,2.47
2023-04-12T08:16:01.678Z,2.28
2023-04-12T08:21:05.025Z,2.05
2023-04-12T08:26:07.875Z,2.40
2023-04-12T08:31:13.162Z,2.40
2023-04-12T08:36:16.620Z,2.50
2023-04-12T08:41:19.739Z,2.53
2023-04-12T08:46:27.039Z,2.20
2023-04-12T08:51:30.578Z,2.10
2023-04-12T08:56:33.862Z,2.58
2023-04-12T09:01:41.410Z,2.30
2023-04-12T09:06:44.281Z,2.60
2023-04-12T09:11:47.259Z,2.72
2023-04-12T09:16:52.764Z,2.55
2023-04-12T09:21:57.001Z,2.47
2023-04-12T09:27:04.795Z,2.78
2023-04-12T09:32:10.623Z,3.00
2023-04-12T09:37:18.085Z,2.97
2023-04-12T09:47:40.363Z,3.00
2023-04-12T09:52:43.661Z,2.55
2023-04-12T09:57:46.785Z,2.83
2023-04-12T10:02:53.219Z,2.30
2023-04-12T10:07:59.224Z,2.22
2023-04-12T10:13:06.799Z,2.30
2023-04-12T10:18:12.410Z,2.50
2023-04-12T10:23:15.639Z,2.22
2023-04-12T10:28:21.501Z,2.33
2023-04-12T10:33:31.506Z,2.95
2023-04-12T10:38:47.194Z,2.35
2023-04-12T10:43:53.227Z,2.42
2023-04-12T10:49:09.880Z,2.50
2023-04-12T10:54:36.046Z,2.78
2023-04-12T10:59:56.870Z,2.15
2023-04-12T11:05:09.707Z,2.65
2023-04-12T11:10:27.587Z,2.60
2023-04-12T11:15:33.996Z,2.38
2023-04-12T11:20:40.646Z,2.22
2023-04-12T11:25:45.002Z,2.10
2023-04-12T11:30:53.204Z,2.78
2023-04-12T11:35:57.469Z,2.35
2023-04-12T11:41:00.397Z,2.33
2023-04-12T11:46:03.534Z,2.78
2023-04-12T11:51:24.836Z,2.78
2023-04-12T11:56:29.492Z,2.72
2023-04-12T12:01:33.930Z,2.58
2023-04-12T12:06:38.523Z,2.72
2023-04-12T12:11:41.746Z,4.00
2023-04-12T12:16:53.487Z,2.90
2023-04-12T12:22:10.968Z,3.17
2023-04-12T12:27:14.088Z,3.72
2023-04-12T12:32:19.758Z,2.72
2023-04-12T12:37:26.636Z,3.13
2023-04-12T12:42:29.585Z,2.92
2023-04-12T12:47:32.710Z,2.78
2023-04-12T12:52:37.051Z,3.20
2023-04-12T12:57:39.847Z,2.85
2023-04-12T13:02:42.865Z,3.10
2023-04-12T13:07:47.590Z,3.00
2023-04-12T13:12:52.838Z,3.28
2023-04-12T13:17:57.049Z,3.67
2023-04-12T13:23:01.583Z,3.30
2023-04-12T13:28:04.510Z,3.58
2023-04-12T13:33:07.346Z,2.83
2023-04-12T13:38:11.623Z,3.92
2023-04-12T13:43:14.380Z,2.80
2023-04-12T13:48:17.354Z,3.85
2023-04-12T13:53:21.519Z,3.05
2023-04-12T13:58:25.799Z,2.83
2023-04-12T14:03:28.643Z,2.33
2023-04-12T14:08:32.945Z,2.78
2023-04-12T14:13:35.737Z,2.80
2023-04-12T14:18:41.906Z,2.63
2023-04-12T14:23:45.982Z,2.13
2023-04-12T14:28:49.980Z,2.38
2023-04-12T14:33:53.565Z,2.40
2023-04-12T14:38:58.143Z,2.25
2023-04-12T14:44:01.625Z,2.35
2023-04-12T14:49:04.386Z,3.58
2023-04-12T14:54:08.493Z,3.28
2023-04-12T14:59:11.273Z,2.60
2023-04-12T15:04:14.194Z,2.50
2023-04-12T15:09:18.626Z,2.60
2023-04-12T15:14:21.437Z,2.20
2023-04-12T15:19:24.307Z,2.30
2023-04-12T15:24:30.779Z,2.03
2023-04-12T15:29:33.602Z,2.20
2023-04-12T15:34:36.615Z,2.53
2023-04-12T15:39:41.363Z,2.40
2023-04-12T15:44:45.402Z,2.47
2023-04-12T15:49:48.149Z,2.40
2023-04-12T15:54:52.321Z,2.70
2023-04-12T15:59:57.647Z,2.67
2023-04-12T16:05:00.650Z,1.92
2023-04-12T16:10:06.332Z,2.28
2023-04-12T16:15:09.700Z,2.47
2023-04-12T16:20:16.621Z,2.10
2023-04-12T16:25:22.148Z,2.25
2023-04-12T16:30:25.504Z,2.60
2023-04-12T16:35:28.428Z,2.55
2023-04-12T16:40:32.560Z,2.90
2023-04-12T16:45:35.389Z,2.65
2023-04-12T16:50:39.210Z,3.53
2023-04-12T16:55:44.696Z,2.60
2023-04-12T17:00:47.496Z,2.70
2023-04-12T17:05:50.229Z,2.78
2023-04-12T17:10:55.229Z,3.67
2023-04-12T17:15:58.129Z,3.13
2023-04-12T17:21:01.268Z,3.08
2023-04-12T17:26:06.901Z,2.72
2023-04-12T17:31:10.224Z,3.70
2023-04-12T17:36:13.938Z,3.53
2023-04-12T17:41:19.110Z,3.58
2023-04-12T17:58:56.139Z,3.60
2023-04-12T18:04:02.628Z,4.50
2023-04-12T18:09:06.282Z,4.30
2023-04-12T18:14:15.703Z,4.20
2023-04-12T18:19:21.655Z,4.00
2023-04-12T18:24:24.422Z,4.40
2023-04-12T18:29:28.627Z,4.47
2023-04-12T18:34:31.804Z,5.95
2023-04-12T18:39:35.957Z,15.10
2023-04-12T18:44:41.491Z,5.55
2023-04-12T18:49:45.755Z,5.50
2023-04-12T18:54:48.539Z,7.35
2023-04-12T18:59:52.876Z,7.13
2023-04-12T19:05:02.952Z,5.30
2023-04-12T19:10:11.242Z,7.47
2023-04-12T19:42:39.233Z,2.40
2023-04-12T19:54:35.900Z,1.70
2023-04-12T20:19:34.539Z,1.35
2023-04-12T20:24:39.458Z,1.40
2023-04-12T20:29:42.570Z,1.63
2023-04-12T20:34:48.016Z,1.90
2023-04-12T20:39:52.325Z,2.47
2023-04-12T20:44:55.065Z,2.15
2023-04-12T20:49:57.884Z,1.83
2023-04-12T20:55:02.319Z,1.70
2023-04-12T21:00:12.877Z,1.83
2023-04-12T21:05:16.772Z,1.73
2023-04-12T21:10:22.282Z,2.15
2023-04-12T21:15:25.093Z,2.60
2023-04-12T21:20:30.340Z,3.10
2023-04-12T21:25:34.938Z,2.40
2023-04-12T21:30:37.895Z,2.70
2023-04-12T21:35:40.739Z,2.58
2023-04-12T21:40:44.854Z,2.42
2023-04-12T21:45:47.620Z,3.25
2023-04-12T21:50:50.419Z,2.58
2023-04-12T21:55:54.910Z,2.80
2023-04-12T22:00:58.290Z,2.60
2023-04-12T22:06:04.704Z,2.55
2023-04-12T22:11:10.332Z,3.00
2023-04-12T22:16:13.606Z,2.50
2023-04-12T22:21:16.602Z,2.80
2023-04-12T22:26:20.690Z,2.40
2023-04-12T22:31:25.930Z,2.53
2023-04-12T22:36:29.598Z,2.88
2023-04-12T22:41:34.158Z,2.88
2023-04-12T22:46:39.169Z,3.00
2023-04-12T22:51:42.240Z,3.22
2023-04-12T22:56:46.753Z,3.25
2023-04-12T23:01:50.111Z,2.90
2023-04-12T23:06:55.299Z,2.60
2023-04-12T23:11:59.541Z,3.20
2023-04-12T23:17:02.652Z,2.83
2023-04-12T23:22:06.037Z,3.47
2023-04-12T23:27:10.509Z,2.60
2023-04-12T23:32:13.953Z,2.50
2023-04-12T23:37:16.654Z,2.90
2023-04-12T23:42:22.172Z,2.95
2023-04-12T23:47:24.988Z,3.50
2023-04-12T23:52:27.723Z,3.42
2023-04-12T23:57:33.116Z,3.55
